Time;durP1;ratioP1;P1;durP2;ratioP2;P2;SDS_P1;SDS_P2;PMS_P1;PMS_P2;Temp;Humidity;BMP_temperature;BMP_pressure;BME280_temperature;BME280_humidity;BME280_pressure;Samples;Min_cycle;Max_cycle;Signal;HPM_P1;HPM_P2
2021/04/12 00:00:28;;;;;;;56.63;42.83;;;;;;;8.03;36.97;101281.12;1656285;86;21198;-75
2021/04/12 00:03:13;;;;;;;55.93;42.53;;;;;;;7.96;39.04;101276.38;1631376;86;21173;-76
2021/04/12 00:05:50;;;;;;;53.37;38.73;;;;;;;7.82;40.55;101275.56;1631538;86;21674;-75
2021/04/12 00:08:29;;;;;;;47.00;34.83;;;;;;;7.64;40.10;101275.98;1640062;86;21208;-75
2021/04/12 00:11:39;;;;;;;42.57;33.23;;;;;;;7.60;36.48;101278.09;1640248;87;21193;-75
2021/04/12 00:14:36;;;;;;;58.27;45.13;;;;;;;7.67;36.05;101265.92;1635728;86;21662;-76
2021/04/12 00:17:12;;;;;;;63.27;44.63;;;;;;;7.74;41.63;101283.41;1613538;87;21377;-76
2021/04/12 00:19:51;;;;;;;66.83;46.23;;;;;;;7.44;42.78;101285.36;1637430;86;21275;-75
2021/04/12 00:22:44;;;;;;;62.17;45.40;;;;;;;7.19;43.34;101287.63;1642367;86;21208;-75
2021/04/12 00:25:34;;;;;;;67.43;46.33;;;;;;;6.96;44.41;101280.98;1640053;87;21351;-76
2021/04/12 00:28:11;;;;;;;68.97;48.27;;;;;;;6.72;45.13;101290.19;1644966;85;21386;-76
2021/04/12 00:30:51;;;;;;;62.37;45.00;;;;;;;6.50;45.85;101275.89;1647644;85;21362;-75
2021/04/12 00:33:30;;;;;;;65.53;46.53;;;;;;;6.31;46.44;101268.31;1643827;85;21208;-76
2021/04/12 00:36:30;;;;;;;64.83;45.63;;;;;;;6.15;47.29;101271.97;1642586;85;21378;-78
2021/04/12 00:39:15;;;;;;;69.17;49.53;;;;;;;5.99;47.75;101273.80;1635265;86;21344;-77
2021/04/12 00:42:04;;;;;;;62.57;47.20;;;;;;;5.91;47.97;101268.32;1626585;85;21372;-75
2021/04/12 00:45:02;;;;;;;63.50;48.40;;;;;;;5.82;47.32;101265.98;1650427;84;21756;-74
2021/04/12 00:48:18;;;;;;;75.57;49.58;;;;;;;5.77;48.13;101271.70;1656237;84;21223;-76
2021/04/12 00:51:13;;;;;;;66.90;50.37;;;;;;;5.68;49.00;101264.56;1666170;84;21403;-76
2021/04/12 00:54:23;;;;;;;72.50;50.50;;;;;;;5.56;49.98;101266.96;1665377;84;21217;-78
2021/04/12 00:57:24;;;;;;;70.90;49.23;;;;;;;5.46;50.73;101267.75;1639087;84;21169;-77
2021/04/12 01:00:15;;;;;;;68.77;49.17;;;;;;;5.33;51.24;101265.81;1662395;84;21277;-76
2021/04/12 01:03:04;;;;;;;68.10;50.07;;;;;;;5.22;52.00;101262.75;1675154;84;21346;-75
2021/04/12 01:06:03;;;;;;;75.60;51.83;;;;;;;5.11;52.35;101260.68;1674707;84;21249;-76
2021/04/12 01:09:07;;;;;;;79.53;52.53;;;;;;;5.02;52.83;101257.83;1672171;84;21370;-76
2021/04/12 01:11:58;;;;;;;72.77;52.57;;;;;;;4.93;53.24;101259.09;1672440;85;21077;-76
2021/04/12 01:14:57;;;;;;;77.70;53.23;;;;;;;4.84;53.91;101258.91;1629379;85;21168;-75
2021/04/12 01:17:54;;;;;;;74.50;53.70;;;;;;;4.79;54.09;101253.16;1818150;79;23446;-75
2021/04/12 01:23:32;;;;;;;76.57;51.87;;;;;;;4.69;54.75;101254.91;1748810;79;23267;-75
2021/04/12 01:26:27;;;;;;;83.30;57.73;;;;;;;4.57;55.11;101250.14;1693264;84;21633;-75
2021/04/12 01:29:29;;;;;;;86.40;58.70;;;;;;;4.54;56.40;101246.91;1683660;83;21367;-91
2021/04/12 01:32:36;;;;;;;86.50;58.53;;;;;;;4.51;56.14;101248.50;1687504;83;21193;-90
2021/04/12 01:35:39;;;;;;;86.77;58.50;;;;;;;4.48;56.58;101248.25;1687842;84;21151;-88
2021/04/12 01:38:37;;;;;;;91.00;58.07;;;;;;;4.44;56.45;101240.23;1660383;84;21199;-89
2021/04/12 01:41:08;;;;;;;;;;;;;;;4.41;56.67;101238.70;1695391;84;21296;-89
2021/04/12 01:44:12;;;;;;;87.60;57.47;;;;;;;4.38;57.08;101239.43;1694615;84;20209;-87
2021/04/12 01:46:54;;;;;;;93.53;59.77;;;;;;;4.30;57.25;101244.02;1679598;83;21317;-91
2021/04/12 01:50:08;;;;;;;85.30;59.13;;;;;;;3.77;56.79;101141.03;1683485;83;21162;-89
2021/04/12 01:53:20;;;;;;;78.17;59.10;;;;;;;4.34;57.30;101223.49;1692673;84;21223;-88
2021/04/12 01:56:24;;;;;;;77.90;56.73;;;;;;;4.35;57.44;101224.69;1682065;84;21208;-90
2021/04/12 01:59:18;;;;;;;90.07;62.37;;;;;;;4.32;57.64;101226.25;1646233;85;21695;-88
2021/04/12 02:02:14;;;;;;;88.20;59.30;;;;;;;4.29;57.57;101218.58;1657674;85;21246;-89
2021/04/12 02:04:54;;;;;;;77.10;54.97;;;;;;;4.26;57.65;101222.80;1658509;85;21177;-88
2021/04/12 02:07:54;;;;;;;73.33;53.63;;;;;;;4.26;57.58;101226.27;1662345;85;21792;-88
2021/04/12 02:11:02;;;;;;;73.07;51.83;;;;;;;4.27;56.88;101220.50;1657563;85;21189;-86
2021/04/12 02:14:13;;;;;;;74.32;55.17;;;;;;;4.31;56.47;101215.33;1667438;85;21200;-90
2021/04/12 02:17:14;;;;;;;79.10;57.73;;;;;;;4.32;56.68;101208.27;1673344;85;21220;-89
2021/04/12 02:20:12;;;;;;;82.07;57.23;;;;;;;4.32;57.13;101209.09;1664411;85;21191;-89
2021/04/12 02:23:06;;;;;;;80.50;59.27;;;;;;;4.35;57.16;101211.50;1639628;85;21144;-88
2021/04/12 02:26:04;;;;;;;80.20;55.40;;;;;;;4.40;57.03;101209.29;1643760;86;21688;-89
2021/04/12 02:29:12;;;;;;;80.75;54.20;;;;;;;4.42;57.11;101207.36;1655657;85;21313;-89
2021/04/12 02:32:07;;;;;;;72.47;54.03;;;;;;;4.43;57.23;101207.73;1654283;85;21202;-91
2021/04/12 02:35:12;;;;;;;69.27;53.40;;;;;;;4.41;57.39;101209.66;1658283;84;21154;-91
2021/04/12 02:38:20;;;;;;;73.63;51.60;;;;;;;4.38;57.35;101201.16;1672466;84;21194;-89
2021/04/12 02:41:28;;;;;;;69.92;50.78;;;;;;;4.36;57.79;101205.23;1673517;84;21341;-90
2021/04/12 02:44:37;;;;;;;73.40;53.20;;;;;;;4.32;57.66;101204.31;1680699;84;21201;-89
2021/04/12 02:47:43;;;;;;;65.57;49.27;;;;;;;4.30;57.65;101207.07;1670545;84;21205;-91
2021/04/12 02:50:49;;;;;;;73.60;48.53;;;;;;;4.26;57.65;101202.52;1672620;84;21201;-89
2021/04/12 02:53:45;;;;;;;65.77;49.43;;;;;;;4.21;57.62;101202.05;1674465;84;21351;-89
2021/04/12 02:57:08;;;;;;;68.02;49.13;;;;;;;4.19;57.97;101192.11;1628916;86;21301;-89
2021/04/12 03:00:12;;;;;;;68.03;46.53;;;;;;;4.16;57.76;101193.66;1625966;86;21259;-90
2021/04/12 03:03:08;;;;;;;68.90;48.53;;;;;;;4.10;57.65;101186.26;1649623;86;21344;-90
2021/04/12 03:06:06;;;;;;;63.47;47.73;;;;;;;4.09;57.54;101183.28;1621282;86;21316;-88
2021/04/12 03:09:26;;;;;;;70.93;49.70;;;;;;;4.07;57.54;101188.67;1644604;86;21360;-90
2021/04/12 03:12:50;;;;;;;65.70;58.55;;;;;;;4.13;57.72;101186.51;1763878;79;28651;-91
2021/04/12 03:15:39;;;;;;;58.80;44.43;;;;;;;4.25;57.26;101191.59;1756095;79;21218;-88
2021/04/12 03:18:48;;;;;;;58.80;43.60;;;;;;;4.38;56.49;101182.67;1747744;81;21211;-90
2021/04/12 03:21:30;;;;;;;62.87;44.50;;;;;;;4.28;56.57;101182.61;1751121;81;21439;-88
2021/04/12 03:24:48;;;;;;;57.40;43.40;;;;;;;4.21;56.52;101182.26;1755550;81;21377;-88
2021/04/12 03:28:07;;;;;;;52.87;42.50;;;;;;;4.23;56.42;101181.65;1723847;81;21187;-90
2021/04/12 03:31:14;;;;;;;57.10;42.40;;;;;;;4.26;56.45;101180.58;1730869;82;21194;-84
2021/04/12 03:34:09;;;;;;;59.30;42.27;;;;;;;4.25;56.47;101177.57;1694097;82;21603;-84
2021/04/12 03:37:14;;;;;;;60.07;41.37;;;;;;;4.26;56.34;101181.89;1679671;83;21943;-83
2021/04/12 03:39:51;;;;;;;60.80;43.40;;;;;;;4.24;56.11;101175.42;1708988;82;21202;-83
2021/04/12 03:43:11;;;;;;;58.87;42.40;;;;;;;4.26;55.79;101168.21;1689621;83;21704;-84
2021/04/12 03:46:19;;;;;;;57.83;41.00;;;;;;;4.26;55.79;101168.21;1722584;81;21274;-84
2021/04/12 03:48:58;;;;;;;61.50;40.97;;;;;;;4.27;55.80;101170.36;1737722;80;21614;-86
2021/04/12 03:52:02;;;;;;;59.87;39.50;;;;;;;4.28;55.72;101168.92;1724001;82;21293;-85
2021/04/12 03:54:50;;;;;;;54.70;39.27;;;;;;;4.30;55.64;101168.80;1744942;81;21236;-82
2021/04/12 03:57:40;;;;;;;52.75;39.00;;;;;;;4.33;55.23;101164.56;1725819;81;21119;-85
2021/04/12 04:00:33;;;;;;;49.60;38.77;;;;;;;4.39;54.53;101165.40;1736903;81;21619;-85
2021/04/12 04:03:53;;;;;;;53.37;37.87;;;;;;;4.47;54.53;101157.66;1794044;79;22944;-86
2021/04/12 04:06:26;;;;;;;53.42;38.20;;;;;;;4.46;54.42;101161.75;1733699;80;21323;-85
2021/04/12 04:09:36;;;;;;;62.20;39.83;;;;;;;4.50;54.22;101159.20;1781333;79;21169;-86
2021/04/12 04:12:26;;;;;;;51.20;37.73;;;;;;;4.55;53.94;101157.51;1739734;79;21252;-89
2021/04/12 04:15:02;;;;;;;55.20;38.57;;;;;;;4.62;53.73;101151.58;1718280;82;21133;-84
2021/04/12 04:17:47;;;;;;;53.85;38.13;;;;;;;4.72;53.21;101149.48;1720060;81;21196;-83
2021/04/12 04:20:31;;;;;;;54.03;39.37;;;;;;;4.79;53.00;101159.88;1657655;85;21348;-85
2021/04/12 04:23:42;;;;;;;58.90;38.23;;;;;;;4.87;52.65;101161.38;1670066;84;21310;-84
2021/04/12 04:27:06;;;;;;;51.47;37.33;;;;;;;4.93;52.50;101159.52;1680695;84;21209;-86
2021/04/12 04:30:20;;;;;;;53.63;38.33;;;;;;;5.09;52.35;101162.20;1628653;85;21707;-86
2021/04/12 04:33:28;;;;;;;59.87;38.17;;;;;;;5.24;52.39;101160.86;1671355;83;21191;-84
2021/04/12 04:36:06;;;;;;;54.77;39.40;;;;;;;5.42;52.79;101159.73;1683302;83;21303;-87
2021/04/12 04:39:05;;;;;;;49.07;38.37;;;;;;;5.64;52.32;101155.54;1676705;84;21479;-84
2021/04/12 04:41:56;;;;;;;53.75;41.70;;;;;;;5.87;51.85;101155.30;1669524;84;21223;-84
2021/04/12 04:44:41;;;;;;;50.97;39.20;;;;;;;6.08;51.44;101151.72;1677279;83;21242;-83
2021/04/12 04:47:32;;;;;;;52.53;40.27;;;;;;;6.27;51.00;101147.74;1665779;84;21366;-85
2021/04/12 04:50:22;;;;;;;55.50;40.77;;;;;;;6.51;50.88;101150.45;1681885;83;21208;-85
2021/04/12 04:53:12;;;;;;;57.27;42.20;;;;;;;6.78;50.18;101145.23;1684422;83;21206;-84
2021/04/12 04:56:37;;;;;;;56.48;48.08;;;;;;;7.16;49.35;101140.77;1805881;75;28370;-85
2021/04/12 04:59:42;;;;;;;52.87;41.83;;;;;;;7.51;48.57;101140.52;1692872;82;21217;-83
2021/04/12 05:02:27;;;;;;;55.43;39.80;;;;;;;7.91;47.19;101137.97;1716981;81;21317;-82
2021/04/12 05:05:26;;;;;;;56.90;41.43;;;;;;;8.13;45.91;101143.80;1700125;82;21198;-84
2021/04/12 05:08:20;;;;;;;55.77;37.37;;;;;;;8.36;45.07;101134.38;1701361;81;21360;-81
2021/04/12 05:11:09;;;;;;;50.90;40.80;;;;;;;8.69;44.35;101125.32;1708203;82;21172;-81
2021/04/12 05:13:48;;;;;;;51.43;40.00;;;;;;;9.05;43.12;101130.50;1705028;81;21202;-82
2021/04/12 05:16:54;;;;;;;49.63;40.03;;;;;;;9.39;42.73;101129.64;1712564;81;21606;-83
2021/04/12 05:19:54;;;;;;;47.70;37.17;;;;;;;9.64;42.03;101100.43;1661195;84;21285;-84
2021/04/12 05:22:59;;;;;;;45.77;36.40;;;;;;;10.22;41.03;101123.96;1690344;81;21174;-82
2021/04/12 05:26:21;;;;;;;47.53;37.30;;;;;;;10.62;39.98;101112.45;1667504;83;21201;-84
2021/04/12 05:29:30;;;;;;;44.00;36.47;;;;;;;10.94;39.49;101114.70;1672596;83;21346;-81
2021/04/12 05:32:31;;;;;;;49.13;36.42;;;;;;;11.19;38.77;101111.46;1678175;83;21225;-83
2021/04/12 05:35:24;;;;;;;41.17;35.70;;;;;;;11.24;38.89;101111.75;1722821;80;21297;-82
2021/04/12 05:38:40;;;;;;;47.57;37.77;;;;;;;11.24;38.84;101103.74;1731553;80;21365;-83
2021/04/12 05:41:31;;;;;;;46.97;36.10;;;;;;;11.18;38.53;101107.11;1728609;80;22416;-81
2021/04/12 05:44:08;;;;;;;46.80;35.27;;;;;;;11.17;38.73;101101.94;1698745;82;21242;-84
2021/04/12 05:46:52;;;;;;;;;;;;;;;11.22;38.72;101103.60;1701533;83;21159;-83
2021/04/12 05:50:17;;;;;;;53.50;36.27;;;;;;;11.25;38.55;101093.92;1689487;83;20547;-83
2021/04/12 05:53:14;;;;;;;42.63;33.77;;;;;;;11.14;38.66;101093.80;1672819;83;21743;-83
2021/04/12 05:56:38;;;;;;;49.23;37.33;;;;;;;11.14;38.97;101098.31;1689985;83;21616;-84
2021/04/12 05:59:14;;;;;;;51.90;38.03;;;;;;;11.21;38.79;101107.29;1719248;82;21485;-82
2021/04/12 06:01:49;;;;;;;43.07;36.53;;;;;;;11.32;38.73;101102.05;1692857;83;21137;-84
2021/04/12 06:04:48;;;;;;;45.97;37.43;;;;;;;11.33;38.76;101101.05;1684874;84;21355;-82
2021/04/12 06:07:43;;;;;;;44.30;36.97;;;;;;;11.29;38.62;101092.56;1644292;85;21238;-84
2021/04/12 06:10:25;;;;;;;47.43;36.43;;;;;;;11.34;38.85;101099.55;1647002;85;21196;-82
2021/04/12 06:13:06;;;;;;;42.97;37.07;;;;;;;11.38;38.85;101091.52;1686572;83;21064;-83
2021/04/12 06:16:09;;;;;;;47.10;37.93;;;;;;;11.36;38.84;101087.34;1677961;84;21367;-82
2021/04/12 06:19:12;;;;;;;50.50;39.97;;;;;;;11.35;39.20;101078.51;1675591;84;21347;-83
2021/04/12 06:21:51;;;;;;;48.70;40.77;;;;;;;11.39;39.58;101081.16;1624196;86;21341;-82
2021/04/12 06:24:50;;;;;;;49.43;36.40;;;;;;;11.55;39.18;101080.75;1695868;82;21137;-80
2021/04/12 06:28:10;;;;;;;57.10;38.37;;;;;;;11.87;38.75;101077.02;1701327;82;21812;-82
2021/04/12 06:31:07;;;;;;;;;;;;;;;12.26;38.27;101078.70;1692976;82;21184;-83
2021/04/12 06:34:26;;;;;;;46.57;39.23;;;;;;;12.68;37.86;101065.75;1675087;83;20209;-81
2021/04/12 06:37:32;;;;;;;51.20;40.53;;;;;;;13.05;37.69;101064.81;1652501;85;21203;-82
2021/04/12 06:40:38;;;;;;;52.50;41.23;;;;;;;13.59;35.97;101071.13;1685071;83;21342;-85
2021/04/12 06:43:54;;;;;;;51.18;39.75;;;;;;;13.93;35.14;101066.92;1658831;85;21243;-81
2021/04/12 06:46:53;;;;;;;49.13;39.05;;;;;;;14.18;35.02;101062.48;1716726;82;21138;-82
2021/04/12 06:49:38;;;;;;;51.28;38.63;;;;;;;14.38;34.36;101058.10;1716358;82;21329;-83
2021/04/12 06:55:24;;;;;;;45.88;41.25;;;;;;;14.75;33.25;101042.68;1796120;77;28716;-83
2021/04/12 06:58:16;;;;;;;44.25;37.73;;;;;;;14.77;33.56;101039.28;1730209;81;21750;-81
2021/04/12 07:01:04;;;;;;;45.90;39.53;;;;;;;14.80;33.92;101039.39;1727282;81;21089;-83
2021/04/12 07:04:16;;;;;;;44.53;35.55;;;;;;;14.73;34.17;101041.20;1715498;82;21189;-81
2021/04/12 07:07:08;;;;;;;41.65;35.90;;;;;;;14.70;34.46;101038.41;1720250;82;21421;-84
2021/04/12 07:10:04;;;;;;;52.45;40.00;;;;;;;14.58;34.82;101033.30;1714573;82;21320;-84
2021/04/12 07:13:27;;;;;;;49.58;37.45;;;;;;;14.39;34.95;101019.55;1720539;82;21077;-84
2021/04/12 07:16:25;;;;;;;47.25;37.85;;;;;;;14.30;35.11;101020.72;1717102;82;21152;-88
2021/04/12 07:19:40;;;;;;;44.40;35.95;;;;;;;14.09;35.62;101015.39;1670817;83;21312;-88
2021/04/12 07:22:44;;;;;;;46.02;36.88;;;;;;;13.95;36.31;101015.81;1689236;84;21183;-90
2021/04/12 07:25:43;;;;;;;42.13;36.50;;;;;;;13.95;36.48;101011.27;1680708;85;21207;-87
2021/04/12 07:29:07;;;;;;;42.95;36.73;;;;;;;13.90;36.87;101010.20;1652371;85;21321;-85
2021/04/12 07:32:15;;;;;;;40.85;34.18;;;;;;;13.77;37.00;101014.44;1682608;85;21784;-84
2021/04/12 07:35:12;;;;;;;41.37;35.28;;;;;;;13.72;37.63;101006.66;1682305;83;21128;-87
2021/04/12 07:38:27;;;;;;;42.70;33.90;;;;;;;13.78;37.96;101003.20;1689064;84;21354;-85
2021/04/12 07:41:42;;;;;;;41.73;32.48;;;;;;;13.89;37.94;101007.22;1684818;83;21352;-90
2021/04/12 07:44:35;;;;;;;35.73;31.87;;;;;;;13.88;37.73;101005.55;1682796;83;21145;-89
2021/04/12 07:47:43;;;;;;;39.65;32.08;;;;;;;13.85;37.88;101000.59;1719055;82;21199;-88
2021/04/12 07:50:50;;;;;;;40.43;31.62;;;;;;;13.96;37.72;100990.16;1715151;82;21777;-85
2021/04/12 07:53:53;;;;;;;39.92;31.33;;;;;;;14.15;37.63;100988.64;1732437;81;21183;-87
2021/04/12 07:57:09;;;;;;;;;;;;;;;;;;;;;
2021/04/12 08:00:07;;;;;;;31.87;28.57;;;;;;;14.73;35.99;100969.60;1792738;79;24002;-89
2021/04/12 08:03:21;;;;;;;31.25;26.68;;;;;;;14.83;36.17;100965.20;1757747;80;21181;-90
2021/04/12 08:06:34;;;;;;;32.00;25.10;;;;;;;15.01;35.29;100961.11;1729610;81;21213;-90
2021/04/12 08:09:35;;;;;;;33.42;27.65;;;;;;;15.08;34.79;100963.31;1692055;83;21667;-91
2021/04/12 08:12:37;;;;;;;27.75;23.95;;;;;;;15.06;34.49;100960.82;1674766;83;21127;-87
2021/04/12 08:15:44;;;;;;;30.80;25.97;;;;;;;15.02;34.06;100960.09;1627934;86;21340;-87
2021/04/12 08:18:48;;;;;;;28.92;25.27;;;;;;;15.01;34.12;100958.43;1659147;85;21649;-88
2021/04/12 08:22:02;;;;;;;30.25;24.65;;;;;;;14.98;34.79;100960.48;1659766;85;21353;-88
2021/04/12 08:24:52;;;;;;;28.07;25.12;;;;;;;14.97;35.21;100964.22;1658138;84;21656;-87
2021/04/12 08:28:03;;;;;;;29.30;24.82;;;;;;;14.97;34.99;100968.73;1660267;86;21200;-88
2021/04/12 08:31:24;;;;;;;27.62;24.10;;;;;;;14.78;35.22;100969.80;1653645;85;21215;-88
2021/04/12 08:34:16;;;;;;;26.57;22.90;;;;;;;14.69;35.21;100972.37;1644488;85;21276;-88
2021/04/12 08:37:15;;;;;;;31.65;23.47;;;;;;;14.53;35.83;100974.83;1640830;82;21294;-91
2021/04/12 08:40:34;;;;;;;10.60;9.53;;;;;;;14.51;35.57;100973.39;1643101;82;21301;-88
2021/04/12 08:44:17;;;;;;;9.03;7.97;;;;;;;14.57;31.18;100971.27;1632093;84;21141;-87
2021/04/12 08:47:18;;;;;;;8.18;7.37;;;;;;;14.64;29.89;100968.64;1616934;86;21378;-94
2021/04/12 08:51:18;;;;;;;10.32;8.80;;;;;;;14.70;28.50;100957.09;1599389;85;21179;-92
2021/04/12 08:54:47;;;;;;;9.60;8.53;;;;;;;14.70;29.23;100947.70;1596522;87;22035;-86
2021/04/12 08:57:38;;;;;;;12.40;9.80;;;;;;;14.71;29.55;100934.59;1682038;79;21163;-88
2021/04/12 09:01:04;;;;;;;12.37;8.35;;;;;;;14.71;29.36;100939.95;1672937;84;21330;-89
2021/04/12 09:04:29;;;;;;;;;;;;;;;;;;;;;
2021/04/12 09:08:18;;;;;;;10.50;8.70;;;;;;;14.60;29.38;100930.65;1703472;79;21214;-95
2021/04/12 09:11:32;;;;;;;13.80;9.35;;;;;;;14.51;29.62;100926.45;1612729;85;21276;-91
2021/04/12 09:15:16;;;;;;;;;;;;;;;;;;;;;
2021/04/12 09:18:56;;;;;;;9.30;6.45;;;;;;;14.58;29.53;100909.91;1803938;75;26585;-94
2021/04/12 09:22:41;;;;;;;9.45;6.40;;;;;;;14.56;28.39;100907.38;1781765;79;21554;-91
2021/04/12 09:25:43;;;;;;;7.22;6.42;;;;;;;14.56;28.74;100911.41;1708044;81;21172;-85
2021/04/12 09:28:47;;;;;;;6.83;5.83;;;;;;;14.62;28.43;100907.13;1711821;81;21161;-85
2021/04/12 09:31:41;;;;;;;6.30;5.65;;;;;;;14.67;27.79;100906.51;1710159;83;21458;-86
2021/04/12 09:34:31;;;;;;;8.20;5.25;;;;;;;14.68;27.39;100897.45;1696801;82;21100;-91
2021/04/12 09:37:42;;;;;;;5.80;4.58;;;;;;;14.69;27.75;100887.86;1672108;83;21500;-87
2021/04/12 09:40:43;;;;;;;6.60;5.50;;;;;;;14.70;27.96;100877.94;1672137;83;21659;-84
2021/04/12 09:43:49;;;;;;;5.45;3.90;;;;;;;14.69;28.30;100877.62;1627240;84;21215;-85
2021/04/12 09:47:11;;;;;;;14.65;6.17;;;;;;;14.68;28.29;100873.30;1673507;84;21617;-85
2021/04/12 09:50:18;;;;;;;9.40;7.10;;;;;;;14.66;29.13;100869.47;1679624;84;21197;-85
2021/04/12 09:53:39;;;;;;;12.23;6.58;;;;;;;14.47;30.16;100869.69;1679510;84;21328;-82
2021/04/12 09:56:37;;;;;;;9.10;8.13;;;;;;;14.26;30.93;100865.77;1665869;83;21579;-82
2021/04/12 09:59:53;;;;;;;8.13;7.30;;;;;;;14.12;31.53;100866.23;1688115;83;21345;-82
2021/04/12 10:03:07;;;;;;;10.05;8.88;;;;;;;14.05;32.74;100854.13;1645980;85;21837;-81
2021/04/12 10:06:08;;;;;;;15.45;9.55;;;;;;;13.97;32.98;100847.59;1645366;85;21242;-82
2021/04/12 10:08:57;;;;;;;13.48;8.35;;;;;;;13.87;33.94;100843.94;1652393;85;21226;-82
2021/04/12 10:11:39;;;;;;;8.45;7.65;;;;;;;13.79;34.56;100840.91;1650464;85;21102;-82
2021/04/12 10:14:29;;;;;;;11.75;9.65;;;;;;;13.81;35.05;100842.06;1684176;84;21335;-82
2021/04/12 10:17:14;;;;;;;9.38;7.78;;;;;;;13.84;35.21;100840.30;1675530;84;21209;-82
2021/04/12 10:19:52;;;;;;;10.32;9.13;;;;;;;13.85;35.38;100839.81;1670328;84;21204;-82
2021/04/12 10:22:47;;;;;;;10.43;8.83;;;;;;;13.81;35.65;100834.84;1666029;84;21201;-82
2021/04/12 10:25:37;;;;;;;8.93;7.47;;;;;;;13.78;35.98;100831.73;1618918;87;21737;-82
2021/04/12 10:28:28;;;;;;;10.23;9.30;;;;;;;13.80;36.34;100827.81;1783181;77;28237;-83
2021/04/12 10:31:14;;;;;;;8.60;7.80;;;;;;;13.99;35.61;100841.03;1745001;80;21724;-83
2021/04/12 10:33:53;;;;;;;8.70;7.90;;;;;;;14.07;35.65;100829.31;1796500;78;23017;-82
2021/04/12 10:36:28;;;;;;;9.20;8.30;;;;;;;13.92;35.44;100832.12;1777569;80;21155;-82
2021/04/12 10:39:05;;;;;;;8.00;7.20;;;;;;;13.82;35.52;100828.47;1769141;80;21213;-82
2021/04/12 10:41:44;;;;;;;15.13;8.80;;;;;;;13.79;35.87;100837.41;1745216;80;21538;-82
2021/04/12 10:44:39;;;;;;;14.43;9.65;;;;;;;13.74;36.24;100847.88;1763402;80;21137;-84
2021/04/12 10:47:18;;;;;;;9.83;8.08;;;;;;;13.73;36.94;100855.59;1750506;80;21175;-83
2021/04/12 10:50:23;;;;;;;7.62;6.40;;;;;;;13.79;37.95;100866.36;1740642;80;21229;-83
2021/04/12 10:53:27;;;;;;;6.15;5.55;;;;;;;13.82;38.90;100865.98;1721181;81;21359;-83
2021/04/12 10:56:18;;;;;;;6.53;5.70;;;;;;;13.72;40.30;100868.69;1724706;81;21028;-82
2021/04/12 10:59:21;;;;;;;6.97;5.40;;;;;;;13.58;41.66;100870.43;1734127;80;21243;-84
2021/04/12 11:02:20;;;;;;;7.95;6.35;;;;;;;13.44;42.90;100865.49;1746319;80;21098;-82
2021/04/12 11:04:55;;;;;;;8.33;6.42;;;;;;;13.28;44.10;100855.88;1721011;82;21199;-82
2021/04/12 11:08:06;;;;;;;12.97;9.60;;;;;;;13.15;45.60;100873.16;1718057;82;22211;-82
2021/04/12 11:10:48;;;;;;;14.07;12.60;;;;;;;13.02;46.81;100875.20;1724605;81;21220;-82
2021/04/12 11:13:46;;;;;;;15.40;11.67;;;;;;;12.79;49.91;100884.72;1699975;83;21108;-81
2021/04/12 11:16:45;;;;;;;16.87;11.87;;;;;;;12.54;50.49;100865.02;1700641;83;21169;-82
2021/04/12 11:20:04;;;;;;;13.80;10.97;;;;;;;12.30;51.51;100870.20;1702001;83;21297;-82
2021/04/12 11:22:55;;;;;;;19.50;14.17;;;;;;;12.12;52.44;100884.45;1704100;82;21064;-81
2021/04/12 11:25:42;;;;;;;20.33;16.20;;;;;;;11.92;54.59;100876.14;1678852;82;21152;-81
2021/04/12 11:28:34;;;;;;;19.57;17.23;;;;;;;11.72;55.11;100882.00;1727924;81;21219;-81
2021/04/12 11:31:28;;;;;;;22.77;18.37;;;;;;;11.55;56.23;100884.52;1727033;82;21173;-82
2021/04/12 11:34:33;;;;;;;18.87;17.07;;;;;;;11.41;57.64;100880.78;1724287;81;21201;-82
2021/04/12 11:37:30;;;;;;;22.67;18.63;;;;;;;11.22;59.03;100880.78;1659919;85;21218;-82
2021/04/12 11:40:17;;;;;;;25.47;17.63;;;;;;;11.16;59.67;100875.66;1643227;85;21223;-80
2021/04/12 11:42:59;;;;;;;20.70;15.68;;;;;;;11.19;60.11;100868.64;1652618;85;21194;-82
2021/04/12 11:45:32;;;;;;;20.87;17.63;;;;;;;11.11;60.33;100868.69;1660833;84;21324;-82
2021/04/12 11:48:10;;;;;;;18.50;16.70;;;;;;;11.05;61.06;100864.07;1650611;85;21166;-82
2021/04/12 11:51:00;;;;;;;20.93;16.70;;;;;;;11.04;61.39;100872.59;1635729;87;21377;-82
2021/04/12 11:53:54;;;;;;;21.30;17.97;;;;;;;11.05;61.36;100866.73;1616260;87;21797;-82
2021/04/12 11:57:00;;;;;;;20.13;16.73;;;;;;;11.04;61.86;100860.58;1612516;88;21109;-81
2021/04/12 11:59:47;;;;;;;19.57;17.00;;;;;;;11.01;61.25;100851.59;1600468;88;21419;-81
2021/04/12 12:02:37;;;;;;;17.67;15.78;;;;;;;11.02;62.39;100861.27;1620891;87;21673;-82
2021/04/12 12:05:22;;;;;;;20.03;16.20;;;;;;;11.06;61.71;100849.73;1597604;88;21183;-81
2021/04/12 12:08:16;;;;;;;17.33;15.53;;;;;;;11.13;60.68;100846.66;1633859;86;21210;-84
2021/04/12 12:10:49;;;;;;;17.37;13.47;;;;;;;11.04;62.13;100841.91;1672456;84;21171;-83
2021/04/12 12:13:56;;;;;;;16.93;14.73;;;;;;;10.94;60.52;100845.30;1690832;83;21099;-84
2021/04/12 12:16:41;;;;;;;19.70;14.77;;;;;;;10.94;59.83;100838.64;1695700;83;21221;-83
2021/04/12 12:19:36;;;;;;;19.87;15.43;;;;;;;10.98;61.05;100833.78;1729267;82;21137;-83
2021/04/12 12:22:15;;;;;;;14.57;13.10;;;;;;;10.96;61.86;100828.61;1718576;82;21162;-82
2021/04/12 12:25:03;;;;;;;16.53;14.17;;;;;;;10.97;61.38;100830.29;1711940;83;21299;-83
2021/04/12 12:27:38;;;;;;;15.23;13.60;;;;;;;10.95;61.99;100829.64;1715174;82;21179;-83
2021/04/12 12:30:33;;;;;;;15.60;12.83;;;;;;;10.89;62.42;100827.70;1716255;82;21179;-83
2021/04/12 12:33:25;;;;;;;14.63;12.50;;;;;;;10.89;61.94;100829.03;1712388;82;21140;-83
2021/04/12 12:36:15;;;;;;;16.50;13.87;;;;;;;11.02;61.73;100815.92;1718109;82;21689;-84
2021/04/12 12:39:13;;;;;;;15.17;13.33;;;;;;;11.02;61.24;100821.25;1712514;82;21656;-83
2021/04/12 12:41:45;;;;;;;18.33;14.23;;;;;;;11.04;60.81;100823.23;1680857;83;21165;-84
2021/04/12 12:44:19;;;;;;;18.73;16.00;;;;;;;11.04;61.63;100821.08;1691111;83;21677;-83
2021/04/12 12:46:47;;;;;;;17.10;14.87;;;;;;;10.98;61.36;100829.77;1682568;84;21165;-84
2021/04/12 12:49:29;;;;;;;16.53;14.60;;;;;;;10.90;61.82;100825.34;1708657;82;21210;-84
2021/04/12 12:52:10;;;;;;;18.07;16.20;;;;;;;10.89;62.16;100830.36;1715400;82;21614;-83
2021/04/12 12:54:49;;;;;;;16.93;15.30;;;;;;;10.88;62.16;100824.69;1685571;84;21183;-82
2021/04/12 12:57:30;;;;;;;18.50;15.50;;;;;;;10.91;61.39;100831.02;1682640;83;21222;-84
2021/04/12 13:00:18;;;;;;;18.87;14.53;;;;;;;11.02;61.22;100829.26;1708315;82;21169;-83
2021/04/12 13:02:47;;;;;;;19.37;14.30;;;;;;;11.20;60.99;100828.10;1693012;83;21132;-84
2021/04/12 13:05:31;;;;;;;15.63;13.83;;;;;;;11.22;60.54;100822.08;1685543;84;21180;-83
2021/04/12 13:08:26;;;;;;;17.33;15.47;;;;;;;11.20;60.30;100822.77;1684023;84;21179;-82
2021/04/12 13:10:56;;;;;;;16.57;14.97;;;;;;;11.17;60.27;100820.45;1680673;84;21311;-83
2021/04/12 13:13:35;;;;;;;20.03;16.20;;;;;;;11.12;60.44;100818.84;1679752;83;21501;-84
2021/04/12 13:16:19;;;;;;;17.43;14.73;;;;;;;11.09;61.07;100818.20;1680882;84;21151;-83
2021/04/12 13:18:58;;;;;;;20.33;17.30;;;;;;;11.08;60.16;100821.05;1680567;84;21204;-84
2021/04/12 13:21:30;;;;;;;16.97;15.27;;;;;;;11.02;59.88;100819.92;1667532;84;21213;-82
2021/04/12 13:24:25;;;;;;;20.10;16.70;;;;;;;10.63;59.16;100758.22;1677532;83;21699;-82
2021/04/12 13:27:05;;;;;;;18.13;16.43;;;;;;;11.02;59.48;100822.59;1662141;84;21184;-81
2021/04/12 13:29:45;;;;;;;20.23;18.23;;;;;;;11.03;59.64;100818.89;1676430;84;21100;-81
2021/04/12 13:32:33;;;;;;;17.73;15.97;;;;;;;11.02;59.02;100817.25;1664086;85;21482;-81
2021/04/12 13:35:15;;;;;;;23.30;16.60;;;;;;;11.02;59.03;100815.06;1661699;83;22055;-81
2021/04/12 13:38:49;;;;;;;21.07;18.67;;;;;;;11.09;58.92;100818.20;1803000;79;23016;-82
2021/04/12 13:41:24;;;;;;;20.93;18.73;;;;;;;11.06;58.62;100814.55;1802465;78;21125;-82
2021/04/12 13:44:06;;;;;;;18.43;16.57;;;;;;;11.12;58.67;100821.00;1768428;78;21148;-82